createdAt,value
2023-02-14T00:03:23.804Z,4.90
2023-02-14T00:08:27.420Z,4.86
2023-02-14T00:13:30.995Z,4.83
2023-02-14T00:18:52.526Z,4.79
2023-02-14T00:23:55.984Z,4.77
2023-02-14T00:28:59.665Z,4.76
2023-02-14T00:34:03.213Z,4.74
2023-02-14T00:39:09.027Z,4.72
2023-02-14T00:44:14.674Z,4.71
2023-02-14T00:49:18.514Z,4.70
2023-02-14T00:54:22.101Z,4.69
2023-02-14T00:59:25.875Z,4.66
2023-02-14T01:04:29.638Z,4.63
2023-02-14T01:09:33.404Z,4.62
2023-02-14T01:14:38.777Z,4.61
2023-02-14T01:19:42.111Z,4.59
2023-02-14T01:24:45.698Z,4.58
2023-02-14T01:29:49.215Z,4.58
2023-02-14T01:34:52.761Z,4.57
2023-02-14T01:39:56.290Z,4.56
2023-02-14T01:45:03.599Z,4.53
2023-02-14T01:50:12.040Z,4.50
2023-02-14T01:55:19.398Z,4.47
2023-02-14T02:00:41.743Z,4.47
2023-02-14T02:05:50.079Z,4.46
2023-02-14T02:10:53.601Z,4.45
2023-02-14T02:16:13.112Z,4.42
2023-02-14T02:22:06.878Z,4.42
2023-02-14T02:27:40.133Z,4.41
2023-02-14T02:33:20.280Z,4.39
2023-02-14T02:38:38.179Z,4.38
2023-02-14T02:43:51.746Z,4.37
2023-02-14T02:49:05.618Z,4.38
2023-02-14T02:54:16.646Z,4.38
2023-02-14T02:59:24.380Z,4.37
2023-02-14T03:04:52.822Z,4.35
2023-02-14T03:09:58.614Z,4.34
2023-02-14T03:15:11.975Z,4.33
2023-02-14T03:20:22.062Z,4.31
2023-02-14T03:25:36.998Z,4.30
2023-02-14T03:30:52.760Z,4.30
2023-02-14T03:36:01.913Z,4.29
2023-02-14T03:41:12.455Z,4.28
2023-02-14T03:46:22.042Z,4.25
2023-02-14T03:51:27.930Z,4.24
2023-02-14T03:56:37.068Z,4.26
2023-02-14T04:01:47.941Z,4.26
2023-02-14T04:06:51.848Z,4.25
2023-02-14T04:11:55.405Z,4.25
2023-02-14T04:17:17.516Z,4.23
2023-02-14T04:22:20.249Z,4.23
2023-02-14T04:27:23.629Z,4.23
2023-02-14T04:32:27.224Z,4.21
2023-02-14T04:37:30.925Z,4.20
2023-02-14T04:42:34.426Z,4.20
2023-02-14T04:47:37.920Z,4.19
2023-02-14T04:52:41.866Z,4.18
2023-02-14T04:57:45.312Z,4.18
2023-02-14T05:02:48.955Z,4.16
2023-02-14T05:07:52.656Z,4.15
2023-02-14T05:12:56.221Z,4.15
2023-02-14T05:18:02.313Z,4.14
2023-02-14T05:23:12.877Z,4.14
2023-02-14T05:28:16.874Z,4.14
2023-02-14T05:33:20.395Z,4.13
2023-02-14T05:38:23.929Z,4.12
2023-02-14T05:43:27.758Z,4.11
2023-02-14T05:48:31.309Z,4.11
2023-02-14T05:53:35.524Z,4.09
2023-02-14T05:58:39.121Z,4.08
2023-02-14T06:03:42.653Z,4.09
2023-02-14T06:08:46.377Z,4.08
2023-02-14T06:13:49.879Z,4.06
2023-02-14T06:18:53.356Z,4.06
2023-02-14T06:23:56.919Z,4.06
2023-02-14T06:29:00.404Z,4.06
2023-02-14T06:34:03.836Z,4.06
2023-02-14T06:39:07.266Z,4.05
2023-02-14T06:44:10.866Z,4.06
2023-02-14T06:49:14.529Z,4.07
2023-02-14T06:54:18.193Z,4.08
2023-02-14T06:59:22.078Z,4.09
2023-02-14T07:04:25.774Z,4.11
2023-02-14T07:09:29.802Z,4.14
2023-02-14T07:14:33.363Z,4.17
2023-02-14T07:19:37.228Z,4.18
2023-02-14T07:24:41.626Z,4.21
2023-02-14T07:29:45.140Z,4.25
2023-02-14T07:34:48.777Z,4.28
2023-02-14T07:39:52.251Z,4.31
2023-02-14T07:44:55.961Z,4.35
2023-02-14T07:49:59.537Z,4.38
2023-02-14T07:55:02.988Z,4.43
2023-02-14T08:00:09.365Z,4.48
2023-02-14T08:05:16.423Z,4.54
2023-02-14T08:10:20.323Z,4.59
2023-02-14T08:15:44.564Z,4.65
2023-02-14T08:20:49.386Z,4.71
2023-02-14T08:25:53.523Z,4.77
2023-02-14T08:31:02.489Z,4.82
2023-02-14T08:36:06.933Z,4.88
2023-02-14T08:41:10.605Z,4.94
2023-02-14T08:46:16.191Z,4.97
2023-02-14T08:51:20.256Z,5.03
2023-02-14T08:56:26.696Z,5.11
2023-02-14T09:01:30.362Z,5.19
2023-02-14T09:06:37.131Z,5.23
2023-02-14T09:11:41.104Z,5.32
2023-02-14T09:16:44.703Z,5.38
2023-02-14T09:21:48.480Z,5.42
2023-02-14T09:26:52.348Z,5.48
2023-02-14T09:31:57.754Z,5.59
2023-02-14T09:37:01.536Z,5.67
2023-02-14T09:42:33.761Z,5.78
2023-02-14T09:47:43.757Z,5.87
2023-02-14T09:52:49.759Z,5.93
2023-02-14T09:58:12.566Z,5.99
2023-02-14T10:03:56.565Z,6.01
2023-02-14T10:09:10.917Z,6.06
2023-02-14T10:14:17.865Z,6.04
2023-02-14T10:19:28.927Z,6.05
2023-02-14T10:24:38.340Z,6.09
2023-02-14T10:29:42.339Z,6.12
2023-02-14T10:34:48.353Z,6.17
2023-02-14T10:40:05.608Z,6.15
2023-02-14T10:45:19.325Z,6.22
2023-02-14T10:50:31.917Z,6.33
2023-02-14T10:55:43.780Z,6.30
2023-02-14T11:00:55.366Z,6.31
2023-02-14T11:05:58.935Z,6.30
2023-02-14T11:11:11.241Z,6.43
2023-02-14T11:16:29.327Z,6.50
2023-02-14T11:21:38.489Z,6.54
2023-02-14T11:26:47.110Z,6.52
2023-02-14T11:31:51.246Z,6.57
2023-02-14T11:36:55.125Z,6.65
2023-02-14T11:42:01.070Z,6.68
2023-02-14T11:47:20.774Z,6.78
2023-02-14T11:52:28.373Z,6.87
2023-02-14T11:57:35.370Z,6.94
2023-02-14T12:02:41.911Z,6.91
2023-02-14T12:07:48.189Z,6.94
2023-02-14T12:12:58.814Z,6.97
2023-02-14T12:18:17.821Z,7.04
2023-02-14T12:23:26.969Z,7.09
2023-02-14T12:28:38.839Z,7.11
2023-02-14T12:33:42.473Z,7.05
2023-02-14T12:38:55.564Z,7.03
2023-02-14T12:44:05.784Z,7.08
2023-02-14T12:49:32.102Z,7.15
2023-02-14T12:54:49.456Z,7.14
2023-02-14T13:00:03.201Z,7.09
2023-02-14T13:05:16.729Z,7.12
2023-02-14T13:10:30.290Z,7.04
2023-02-14T13:15:42.171Z,6.98
2023-02-14T13:20:51.078Z,6.91
2023-02-14T13:26:01.138Z,6.91
2023-02-14T13:31:05.672Z,6.85
2023-02-14T13:36:12.253Z,6.75
2023-02-14T13:41:16.986Z,6.67
2023-02-14T13:46:42.774Z,6.59
2023-02-14T13:51:48.626Z,6.58
2023-02-14T13:56:52.267Z,6.55
2023-02-14T14:01:56.385Z,6.48
2023-02-14T14:07:18.933Z,6.45
2023-02-14T14:12:39.549Z,6.40
2023-02-14T14:17:45.381Z,6.37
2023-02-14T14:22:51.054Z,6.33
2023-02-14T14:27:54.518Z,6.30
2023-02-14T14:33:13.529Z,6.26
2023-02-14T14:38:17.157Z,6.24
2023-02-14T14:43:27.233Z,6.23
2023-02-14T14:48:33.352Z,6.18
2023-02-14T14:53:43.983Z,6.12
2023-02-14T14:58:47.520Z,6.11
2023-02-14T15:03:51.399Z,6.06
2023-02-14T15:08:56.101Z,5.99
2023-02-14T15:14:05.353Z,5.93
2023-02-14T15:19:33.871Z,5.90
2023-02-14T15:24:41.590Z,5.87
2023-02-14T15:29:55.937Z,5.85
2023-02-14T15:35:11.061Z,5.84
2023-02-14T15:40:24.113Z,5.78
2023-02-14T15:45:37.001Z,5.70
2023-02-14T15:50:48.212Z,5.63
2023-02-14T15:56:02.598Z,5.54
2023-02-14T16:01:13.332Z,5.48
2023-02-14T16:06:36.765Z,5.44
2023-02-14T16:11:41.343Z,5.34
2023-02-14T16:17:02.379Z,5.27
2023-02-14T16:22:08.604Z,5.22
2023-02-14T16:27:13.205Z,5.15
2023-02-14T16:32:22.720Z,5.10
2023-02-14T16:37:33.790Z,5.05
2023-02-14T16:42:40.280Z,4.99
2023-02-14T16:47:53.770Z,4.94
2023-02-14T16:53:00.845Z,4.89
2023-02-14T16:58:05.925Z,4.84
2023-02-14T17:03:13.140Z,4.79
2023-02-14T17:08:18.275Z,4.76
2023-02-14T17:13:33.110Z,4.70
2023-02-14T17:18:37.943Z,4.66
2023-02-14T17:23:42.852Z,4.63
2023-02-14T17:28:47.257Z,4.60
2023-02-14T17:33:56.530Z,4.61
2023-02-14T17:39:02.865Z,4.60
2023-02-14T17:44:09.674Z,4.59
2023-02-14T17:49:16.184Z,4.59
2023-02-14T17:54:30.194Z,4.59
2023-02-14T17:59:34.892Z,4.53
2023-02-14T18:04:58.704Z,4.45
2023-02-14T18:10:05.958Z,4.35
2023-02-14T18:15:11.946Z,4.31
2023-02-14T18:20:16.616Z,4.21
2023-02-14T18:25:20.737Z,4.11
2023-02-14T18:30:25.282Z,4.06
2023-02-14T18:35:30.839Z,3.99
2023-02-14T18:40:40.976Z,3.90
2023-02-14T18:45:44.330Z,3.86
2023-02-14T18:50:48.093Z,3.84
2023-02-14T18:55:51.580Z,3.78
2023-02-14T19:00:56.070Z,3.72
2023-02-14T19:06:00.415Z,3.66
2023-02-14T19:11:04.783Z,3.59
2023-02-14T19:16:13.060Z,3.51
2023-02-14T19:21:19.271Z,3.44
2023-02-14T19:26:25.249Z,3.40
2023-02-14T19:31:30.361Z,3.36
2023-02-14T19:36:36.969Z,3.36
2023-02-14T19:41:41.815Z,3.37
2023-02-14T19:46:49.852Z,3.38
2023-02-14T19:51:58.203Z,3.39
2023-02-14T19:57:02.445Z,3.37
2023-02-14T20:02:17.358Z,3.31
2023-02-14T20:07:22.455Z,3.26
2023-02-14T20:12:26.550Z,3.16
2023-02-14T20:17:34.526Z,3.04
2023-02-14T20:22:38.602Z,2.91
2023-02-14T20:27:46.836Z,2.76
2023-02-14T20:32:54.344Z,2.56
2023-02-14T20:38:02.388Z,2.37
2023-02-14T20:43:07.696Z,2.16
2023-02-14T20:48:14.276Z,1.93
2023-02-14T20:53:25.631Z,1.75
2023-02-14T20:58:31.658Z,1.58
2023-02-14T21:03:38.268Z,1.37
2023-02-14T21:08:46.485Z,1.18
2023-02-14T21:13:58.599Z,1.04
2023-02-14T21:19:04.336Z,0.92
2023-02-14T21:24:10.222Z,0.81
2023-02-14T21:29:14.412Z,0.74
2023-02-14T21:34:18.109Z,0.58
2023-02-14T21:39:26.897Z,0.42
2023-02-14T21:44:49.843Z,0.29
2023-02-14T21:50:12.128Z,0.16
2023-02-14T21:55:17.753Z,0.05
2023-02-14T22:00:22.842Z,-0.09
2023-02-14T22:05:27.307Z,-0.23
2023-02-14T22:10:32.753Z,-0.36
2023-02-14T22:15:42.895Z,-0.49
2023-02-14T22:20:48.084Z,-0.64
2023-02-14T22:25:52.512Z,-0.76
2023-02-14T22:31:00.424Z,-0.87
2023-02-14T22:36:06.900Z,-1.03
2023-02-14T22:41:13.970Z,-1.16
2023-02-14T22:46:20.112Z,-1.26
2023-02-14T22:51:26.464Z,-1.36
2023-02-14T22:56:34.070Z,-1.48
2023-02-14T23:01:38.838Z,-1.58
2023-02-14T23:06:43.221Z,-1.62
2023-02-14T23:11:48.100Z,-1.63
2023-02-14T23:17:10.684Z,-1.61
2023-02-14T23:22:20.599Z,-1.58
2023-02-14T23:27:26.800Z,-1.53
2023-02-14T23:32:30.781Z,-1.50
2023-02-14T23:37:34.914Z,-1.44
2023-02-14T23:42:40.373Z,-1.43
2023-02-14T23:47:44.857Z,-1.43
2023-02-14T23:53:05.478Z,-1.42
2023-02-14T23:58:09.283Z,-1.43
